sensor_id;sensor_type;location;lat;lon;timestamp;pressure;altitude;pressure_sealevel;temperature;humidity
21361;BME280;10839;43.206;23.550;2022-12-16T00:01:13;96930.00;;;2.59;100.00
21361;BME280;10839;43.206;23.550;2022-12-16T00:03:41;96916.88;;;2.58;100.00
21361;BME280;10839;43.206;23.550;2022-12-16T00:06:08;96928.34;;;2.58;100.00
21361;BME280;10839;43.206;23.550;2022-12-16T00:08:36;96921.22;;;2.41;100.00
21361;BME280;10839;43.206;23.550;2022-12-16T00:11:03;96917.13;;;2.64;100.00
21361;BME280;10839;43.206;23.550;2022-12-16T00:13:30;96923.56;;;2.62;100.00
21361;BME280;10839;43.206;23.550;2022-12-16T00:15:57;96921.97;;;2.51;100.00
21361;BME280;10839;43.206;23.550;2022-12-16T00:18:24;96922.50;;;2.55;100.00
21361;BME280;10839;43.206;23.550;2022-12-16T00:20:52;96930.63;;;2.89;100.00
21361;BME280;10839;43.206;23.550;2022-12-16T00:23:19;96931.38;;;2.63;100.00
21361;BME280;10839;43.206;23.550;2022-12-16T00:25:46;96925.84;;;2.39;100.00
21361;BME280;10839;43.206;23.550;2022-12-16T00:28:13;96918.19;;;2.72;100.00
21361;BME280;10839;43.206;23.550;2022-12-16T00:30:43;96927.59;;;2.48;100.00
21361;BME280;10839;43.206;23.550;2022-12-16T00:33:10;96928.97;;;2.52;100.00
21361;BME280;10839;43.206;23.550;2022-12-16T00:35:36;96919.38;;;2.59;100.00
21361;BME280;10839;43.206;23.550;2022-12-16T00:38:02;96911.81;;;2.64;100.00
21361;BME280;10839;43.206;23.550;2022-12-16T00:40:27;96920.94;;;2.44;100.00
21361;BME280;10839;43.206;23.550;2022-12-16T00:42:54;96931.75;;;2.33;100.00
21361;BME280;10839;43.206;23.550;2022-12-16T00:45:20;96916.75;;;2.42;100.00
21361;BME280;10839;43.206;23.550;2022-12-16T00:47:48;96943.06;;;2.35;100.00
21361;BME280;10839;43.206;23.550;2022-12-16T00:50:14;96934.22;;;2.17;100.00
21361;BME280;10839;43.206;23.550;2022-12-16T00:52:40;96943.50;;;2.48;100.00
21361;BME280;10839;43.206;23.550;2022-12-16T00:55:07;96938.22;;;2.48;100.00
21361;BME280;10839;43.206;23.550;2022-12-16T00:57:33;96942.16;;;2.44;100.00
21361;BME280;10839;43.206;23.550;2022-12-16T01:00:00;96927.91;;;2.45;100.00
21361;BME280;10839;43.206;23.550;2022-12-16T01:02:28;96945.50;;;2.82;100.00
21361;BME280;10839;43.206;23.550;2022-12-16T01:04:54;96924.56;;;2.43;100.00
21361;BME280;10839;43.206;23.550;2022-12-16T01:07:20;96937.28;;;2.22;100.00
21361;BME280;10839;43.206;23.550;2022-12-16T01:09:46;96924.81;;;2.68;100.00
21361;BME280;10839;43.206;23.550;2022-12-16T01:12:11;96921.69;;;2.54;100.00
21361;BME280;10839;43.206;23.550;2022-12-16T01:14:37;96916.19;;;2.38;100.00
21361;BME280;10839;43.206;23.550;2022-12-16T01:17:03;96911.81;;;2.64;100.00
21361;BME280;10839;43.206;23.550;2022-12-16T01:19:29;96937.44;;;2.38;100.00
21361;BME280;10839;43.206;23.550;2022-12-16T01:21:55;96926.81;;;2.21;100.00
21361;BME280;10839;43.206;23.550;2022-12-16T01:24:21;96925.34;;;2.26;100.00
21361;BME280;10839;43.206;23.550;2022-12-16T01:26:47;96919.25;;;2.43;100.00
21361;BME280;10839;43.206;23.550;2022-12-16T01:29:13;96917.41;;;2.26;100.00
21361;BME280;10839;43.206;23.550;2022-12-16T01:31:40;96907.47;;;2.11;100.00
21361;BME280;10839;43.206;23.550;2022-12-16T01:34:06;96907.28;;;2.39;100.00
21361;BME280;10839;43.206;23.550;2022-12-16T01:36:31;96915.22;;;2.39;100.00
21361;BME280;10839;43.206;23.550;2022-12-16T01:38:57;96897.09;;;2.17;100.00
21361;BME280;10839;43.206;23.550;2022-12-16T01:41:23;96893.88;;;2.31;100.00
21361;BME280;10839;43.206;23.550;2022-12-16T01:43:49;96911.41;;;2.59;100.00
21361;BME280;10839;43.206;23.550;2022-12-16T01:46:20;96898.81;;;2.26;100.00
21361;BME280;10839;43.206;23.550;2022-12-16T01:49:10;96883.66;;;2.19;100.00
21361;BME280;10839;43.206;23.550;2022-12-16T01:51:42;96882.38;;;2.40;100.00
21361;BME280;10839;43.206;23.550;2022-12-16T01:54:13;96890.94;;;2.17;100.00
21361;BME280;10839;43.206;23.550;2022-12-16T01:56:44;96889.47;;;2.05;100.00
21361;BME280;10839;43.206;23.550;2022-12-16T01:59:13;96900.34;;;2.46;100.00
21361;BME280;10839;43.206;23.550;2022-12-16T02:01:40;96887.91;;;2.47;100.00
21361;BME280;10839;43.206;23.550;2022-12-16T02:04:06;96876.94;;;2.24;100.00
21361;BME280;10839;43.206;23.550;2022-12-16T02:06:32;96870.09;;;2.39;100.00
21361;BME280;10839;43.206;23.550;2022-12-16T02:09:02;96861.13;;;2.58;100.00
21361;BME280;10839;43.206;23.550;2022-12-16T02:14:25;96872.59;;;2.23;100.00
21361;BME280;10839;43.206;23.550;2022-12-16T02:22:53;96841.56;;;2.06;100.00
21361;BME280;10839;43.206;23.550;2022-12-16T02:25:44;96849.00;;;2.20;100.00
21361;BME280;10839;43.206;23.550;2022-12-16T02:37:01;96870.34;;;2.01;100.00
21361;BME280;10839;43.206;23.550;2022-12-16T02:39:52;96875.94;;;2.25;100.00
21361;BME280;10839;43.206;23.550;2022-12-16T02:42:32;96864.84;;;2.12;100.00
21361;BME280;10839;43.206;23.550;2022-12-16T02:45:03;96858.84;;;2.10;100.00
21361;BME280;10839;43.206;23.550;2022-12-16T02:47:31;96868.19;;;2.32;100.00
21361;BME280;10839;43.206;23.550;2022-12-16T02:49:58;96854.25;;;2.12;100.00
21361;BME280;10839;43.206;23.550;2022-12-16T02:52:28;96859.78;;;2.19;100.00
21361;BME280;10839;43.206;23.550;2022-12-16T02:55:03;96875.88;;;1.90;100.00
21361;BME280;10839;43.206;23.550;2022-12-16T02:57:57;96889.63;;;2.03;100.00
21361;BME280;10839;43.206;23.550;2022-12-16T03:00:33;96868.28;;;2.22;100.00
21361;BME280;10839;43.206;23.550;2022-12-16T03:03:12;96886.00;;;2.04;100.00
21361;BME280;10839;43.206;23.550;2022-12-16T03:05:43;96900.19;;;2.48;100.00
21361;BME280;10839;43.206;23.550;2022-12-16T03:08:29;96887.84;;;2.56;100.00
21361;BME280;10839;43.206;23.550;2022-12-16T03:11:00;96897.00;;;2.27;100.00
21361;BME280;10839;43.206;23.550;2022-12-16T03:13:38;96905.72;;;2.19;100.00
21361;BME280;10839;43.206;23.550;2022-12-16T03:16:08;96902.84;;;2.30;100.00
21361;BME280;10839;43.206;23.550;2022-12-16T03:18:37;96897.31;;;2.24;100.00
21361;BME280;10839;43.206;23.550;2022-12-16T03:21:06;96899.19;;;1.96;100.00
21361;BME280;10839;43.206;23.550;2022-12-16T03:23:59;96911.28;;;2.43;100.00
21361;BME280;10839;43.206;23.550;2022-12-16T03:26:34;96897.31;;;2.24;100.00
21361;BME280;10839;43.206;23.550;2022-12-16T03:29:35;96905.53;;;2.03;100.00
21361;BME280;10839;43.206;23.550;2022-12-16T03:31:58;96911.81;;;2.64;100.00
21361;BME280;10839;43.206;23.550;2022-12-16T03:34:55;96895.28;;;2.35;100.00
21361;BME280;10839;43.206;23.550;2022-12-16T03:37:21;96900.31;;;2.11;100.00
21361;BME280;10839;43.206;23.550;2022-12-16T03:39:52;96888.75;;;2.47;100.00
21361;BME280;10839;43.206;23.550;2022-12-16T03:42:20;96889.97;;;2.35;100.00
21361;BME280;10839;43.206;23.550;2022-12-16T03:44:48;96892.63;;;2.18;100.00
21361;BME280;10839;43.206;23.550;2022-12-16T03:47:14;96885.72;;;2.42;100.00
21361;BME280;10839;43.206;23.550;2022-12-16T03:49:41;96870.88;;;2.49;100.00
21361;BME280;10839;43.206;23.550;2022-12-16T03:52:07;96872.66;;;2.31;100.00
21361;BME280;10839;43.206;23.550;2022-12-16T03:54:33;96883.28;;;2.31;100.00
21361;BME280;10839;43.206;23.550;2022-12-16T03:56:59;96890.34;;;2.58;100.00
21361;BME280;10839;43.206;23.550;2022-12-16T03:59:25;96879.97;;;2.29;100.00
21361;BME280;10839;43.206;23.550;2022-12-16T04:01:51;96879.47;;;2.16;100.00
21361;BME280;10839;43.206;23.550;2022-12-16T04:04:17;96872.91;;;2.55;100.00
21361;BME280;10839;43.206;23.550;2022-12-16T04:06:43;96890.03;;;2.43;100.00
21361;BME280;10839;43.206;23.550;2022-12-16T04:09:09;96888.66;;;2.22;100.00
21361;BME280;10839;43.206;23.550;2022-12-16T04:11:35;96867.72;;;2.19;100.00
21361;BME280;10839;43.206;23.550;2022-12-16T04:14:19;96867.22;;;2.50;100.00
21361;BME280;10839;43.206;23.550;2022-12-16T04:17:04;96868.84;;;2.16;100.00
21361;BME280;10839;43.206;23.550;2022-12-16T04:19:49;96872.19;;;2.18;100.00
21361;BME280;10839;43.206;23.550;2022-12-16T04:27:49;96854.44;;;2.72;100.00
21361;BME280;10839;43.206;23.550;2022-12-16T04:30:17;96853.25;;;2.13;100.00
21361;BME280;10839;43.206;23.550;2022-12-16T04:33:01;96844.97;;;1.54;100.00
21361;BME280;10839;43.206;23.550;2022-12-16T04:35:46;96839.28;;;1.67;100.00
21361;BME280;10839;43.206;23.550;2022-12-16T04:38:31;96835.72;;;1.58;100.00
21361;BME280;10839;43.206;23.550;2022-12-16T04:41:15;96830.38;;;1.41;100.00
21361;BME280;10839;43.206;23.550;2022-12-16T04:44:00;96811.44;;;1.63;100.00
21361;BME280;10839;43.206;23.550;2022-12-16T04:46:44;96813.78;;;1.83;100.00
21361;BME280;10839;43.206;23.550;2022-12-16T04:49:29;96812.91;;;1.48;100.00
21361;BME280;10839;43.206;23.550;2022-12-16T04:52:14;96834.00;;;1.67;100.00
21361;BME280;10839;43.206;23.550;2022-12-16T04:54:59;96847.47;;;2.00;100.00
21361;BME280;10839;43.206;23.550;2022-12-16T04:57:49;96849.91;;;2.11;100.00
21361;BME280;10839;43.206;23.550;2022-12-16T05:00:34;96866.00;;;2.27;100.00
21361;BME280;10839;43.206;23.550;2022-12-16T05:03:18;96859.31;;;2.23;100.00
21361;BME280;10839;43.206;23.550;2022-12-16T05:06:03;96876.72;;;2.08;100.00
21361;BME280;10839;43.206;23.550;2022-12-16T05:08:47;96888.06;;;2.28;100.00
21361;BME280;10839;43.206;23.550;2022-12-16T05:11:31;96909.81;;;2.31;100.00
21361;BME280;10839;43.206;23.550;2022-12-16T05:14:16;96913.34;;;2.05;100.00
21361;BME280;10839;43.206;23.550;2022-12-16T05:17:00;96932.19;;;2.29;100.00
21361;BME280;10839;43.206;23.550;2022-12-16T05:19:44;96957.13;;;2.18;100.00
21361;BME280;10839;43.206;23.550;2022-12-16T05:22:28;96957.09;;;2.01;100.00
21361;BME280;10839;43.206;23.550;2022-12-16T05:25:13;96970.00;;;2.13;100.00
21361;BME280;10839;43.206;23.550;2022-12-16T05:27:57;96972.09;;;2.37;100.00
21361;BME280;10839;43.206;23.550;2022-12-16T05:30:41;96992.94;;;2.05;100.00
21361;BME280;10839;43.206;23.550;2022-12-16T05:33:25;97009.69;;;2.05;100.00
21361;BME280;10839;43.206;23.550;2022-12-16T05:36:10;97004.19;;;2.16;100.00
21361;BME280;10839;43.206;23.550;2022-12-16T05:38:54;96960.28;;;2.04;100.00
21361;BME280;10839;43.206;23.550;2022-12-16T05:41:38;96959.19;;;1.97;100.00
21361;BME280;10839;43.206;23.550;2022-12-16T05:44:23;96944.63;;;2.01;100.00
21361;BME280;10839;43.206;23.550;2022-12-16T05:47:08;96936.31;;;1.96;100.00
21361;BME280;10839;43.206;23.550;2022-12-16T05:49:53;96973.66;;;1.76;100.00
21361;BME280;10839;43.206;23.550;2022-12-16T05:52:37;96968.50;;;2.28;100.00
21361;BME280;10839;43.206;23.550;2022-12-16T05:55:22;96957.66;;;1.95;100.00
21361;BME280;10839;43.206;23.550;2022-12-16T05:58:07;96934.44;;;1.79;100.00
21361;BME280;10839;43.206;23.550;2022-12-16T06:00:51;96942.28;;;2.25;100.00
21361;BME280;10839;43.206;23.550;2022-12-16T06:03:35;96925.09;;;2.02;100.00
21361;BME280;10839;43.206;23.550;2022-12-16T06:06:20;96935.09;;;1.54;100.00
21361;BME280;10839;43.206;23.550;2022-12-16T06:09:04;96937.78;;;1.81;100.00
21361;BME280;10839;43.206;23.550;2022-12-16T06:11:50;96901.88;;;1.60;100.00
21361;BME280;10839;43.206;23.550;2022-12-16T06:14:36;96968.25;;;1.58;100.00
21361;BME280;10839;43.206;23.550;2022-12-16T06:17:20;96973.72;;;1.93;100.00
21361;BME280;10839;43.206;23.550;2022-12-16T06:20:05;96947.50;;;1.90;100.00
21361;BME280;10839;43.206;23.550;2022-12-16T06:22:52;96971.91;;;1.57;100.00
21361;BME280;10839;43.206;23.550;2022-12-16T06:25:36;96964.50;;;1.97;100.00
21361;BME280;10839;43.206;23.550;2022-12-16T06:28:21;96965.19;;;1.99;100.00
21361;BME280;10839;43.206;23.550;2022-12-16T06:31:05;96971.84;;;1.76;100.00
21361;BME280;10839;43.206;23.550;2022-12-16T06:33:50;96943.28;;;1.97;100.00
21361;BME280;10839;43.206;23.550;2022-12-16T06:36:34;96949.31;;;2.17;100.00
21361;BME280;10839;43.206;23.550;2022-12-16T06:39:19;96950.88;;;2.10;100.00
21361;BME280;10839;43.206;23.550;2022-12-16T06:42:03;96945.16;;;2.14;100.00
21361;BME280;10839;43.206;23.550;2022-12-16T06:44:48;96974.91;;;2.35;100.00
21361;BME280;10839;43.206;23.550;2022-12-16T06:47:32;96995.72;;;2.13;100.00
21361;BME280;10839;43.206;23.550;2022-12-16T06:50:16;96971.16;;;2.01;100.00
21361;BME280;10839;43.206;23.550;2022-12-16T06:53:01;96979.72;;;2.22;100.00
21361;BME280;10839;43.206;23.550;2022-12-16T06:55:45;96985.72;;;1.97;100.00
21361;BME280;10839;43.206;23.550;2022-12-16T06:58:29;96984.72;;;1.71;100.00
21361;BME280;10839;43.206;23.550;2022-12-16T07:01:14;96974.34;;;1.78;100.00
21361;BME280;10839;43.206;23.550;2022-12-16T07:03:58;96956.38;;;1.99;100.00
21361;BME280;10839;43.206;23.550;2022-12-16T07:06:43;96972.94;;;2.10;100.00
21361;BME280;10839;43.206;23.550;2022-12-16T07:09:27;96993.53;;;1.99;100.00
21361;BME280;10839;43.206;23.550;2022-12-16T07:12:11;96983.53;;;1.83;100.00
21361;BME280;10839;43.206;23.550;2022-12-16T07:14:56;96965.34;;;1.88;100.00
21361;BME280;10839;43.206;23.550;2022-12-16T07:17:54;96979.41;;;1.71;100.00
21361;BME280;10839;43.206;23.550;2022-12-16T07:20:39;96990.22;;;2.41;100.00
21361;BME280;10839;43.206;23.550;2022-12-16T07:23:23;96967.94;;;2.34;100.00
21361;BME280;10839;43.206;23.550;2022-12-16T07:26:07;96990.97;;;2.07;100.00
21361;BME280;10839;43.206;23.550;2022-12-16T07:28:52;96958.19;;;2.25;100.00
21361;BME280;10839;43.206;23.550;2022-12-16T07:31:37;96970.66;;;1.88;100.00
21361;BME280;10839;43.206;23.550;2022-12-16T07:34:21;96979.66;;;2.77;100.00
21361;BME280;10839;43.206;23.550;2022-12-16T07:37:06;96972.75;;;3.19;100.00
21361;BME280;10839;43.206;23.550;2022-12-16T07:39:50;96958.38;;;3.12;100.00
21361;BME280;10839;43.206;23.550;2022-12-16T07:42:34;96975.41;;;3.19;100.00
21361;BME280;10839;43.206;23.550;2022-12-16T07:45:19;96940.00;;;4.03;100.00
21361;BME280;10839;43.206;23.550;2022-12-16T07:48:11;96948.34;;;4.08;100.00
21361;BME280;10839;43.206;23.550;2022-12-16T07:50:55;96932.56;;;5.53;100.00
21361;BME280;10839;43.206;23.550;2022-12-16T07:53:39;96939.22;;;5.89;100.00
21361;BME280;10839;43.206;23.550;2022-12-16T07:56:23;96919.03;;;6.56;100.00
21361;BME280;10839;43.206;23.550;2022-12-16T07:59:08;96901.41;;;6.69;100.00
21361;BME280;10839;43.206;23.550;2022-12-16T08:01:52;96949.34;;;8.56;100.00
21361;BME280;10839;43.206;23.550;2022-12-16T08:04:36;96926.75;;;9.01;100.00
21361;BME280;10839;43.206;23.550;2022-12-16T08:07:21;96956.66;;;9.19;100.00
21361;BME280;10839;43.206;23.550;2022-12-16T08:10:05;96936.38;;;7.72;100.00
21361;BME280;10839;43.206;23.550;2022-12-16T08:12:50;96944.78;;;6.18;100.00
21361;BME280;10839;43.206;23.550;2022-12-16T08:15:34;96940.78;;;6.14;100.00
21361;BME280;10839;43.206;23.550;2022-12-16T08:18:18;96942.81;;;6.04;100.00
21361;BME280;10839;43.206;23.550;2022-12-16T08:21:02;96970.25;;;5.01;100.00
21361;BME280;10839;43.206;23.550;2022-12-16T08:23:47;96972.81;;;4.45;100.00
21361;BME280;10839;43.206;23.550;2022-12-16T08:26:31;96984.72;;;4.75;100.00
21361;BME280;10839;43.206;23.550;2022-12-16T08:29:15;97015.44;;;3.86;100.00
21361;BME280;10839;43.206;23.550;2022-12-16T08:32:00;96957.09;;;3.59;100.00
21361;BME280;10839;43.206;23.550;2022-12-16T08:34:44;96985.81;;;4.15;100.00
21361;BME280;10839;43.206;23.550;2022-12-16T08:37:29;96973.22;;;3.40;100.00
21361;BME280;10839;43.206;23.550;2022-12-16T08:40:14;96965.81;;;3.26;100.00
21361;BME280;10839;43.206;23.550;2022-12-16T08:42:58;96926.47;;;3.88;100.00
21361;BME280;10839;43.206;23.550;2022-12-16T08:45:42;96948.34;;;4.08;100.00
21361;BME280;10839;43.206;23.550;2022-12-16T08:48:27;96998.69;;;3.93;100.00
21361;BME280;10839;43.206;23.550;2022-12-16T08:51:11;96957.72;;;4.20;100.00
21361;BME280;10839;43.206;23.550;2022-12-16T08:53:56;96964.06;;;4.69;100.00
21361;BME280;10839;43.206;23.550;2022-12-16T08:56:41;96969.09;;;4.30;100.00
21361;BME280;10839;43.206;23.550;2022-12-16T08:59:25;96944.50;;;4.03;100.00
21361;BME280;10839;43.206;23.550;2022-12-16T09:02:10;96997.53;;;4.79;100.00
21361;BME280;10839;43.206;23.550;2022-12-16T09:04:54;96986.53;;;4.25;100.00
21361;BME280;10839;43.206;23.550;2022-12-16T09:07:39;96987.06;;;4.03;100.00
21361;BME280;10839;43.206;23.550;2022-12-16T09:10:25;96981.06;;;4.34;100.00
21361;BME280;10839;43.206;23.550;2022-12-16T09:13:12;96955.09;;;4.28;100.00
21361;BME280;10839;43.206;23.550;2022-12-16T09:15:57;96965.59;;;3.96;100.00
21361;BME280;10839;43.206;23.550;2022-12-16T09:18:42;96937.31;;;3.95;100.00
21361;BME280;10839;43.206;23.550;2022-12-16T09:21:26;96948.19;;;4.59;100.00
21361;BME280;10839;43.206;23.550;2022-12-16T09:24:11;96933.81;;;4.44;100.00
21361;BME280;10839;43.206;23.550;2022-12-16T09:26:55;96928.44;;;4.20;100.00
21361;BME280;10839;43.206;23.550;2022-12-16T09:29:40;96906.91;;;5.28;100.00
21361;BME280;10839;43.206;23.550;2022-12-16T09:32:25;96878.06;;;5.39;100.00
21361;BME280;10839;43.206;23.550;2022-12-16T09:35:10;96878.28;;;4.89;100.00
21361;BME280;10839;43.206;23.550;2022-12-16T09:37:54;96845.28;;;5.06;100.00
21361;BME280;10839;43.206;23.550;2022-12-16T09:40:41;96836.13;;;5.72;100.00
21361;BME280;10839;43.206;23.550;2022-12-16T09:46:15;96833.25;;;7.76;100.00
21361;BME280;10839;43.206;23.550;2022-12-16T09:49:34;96835.81;;;8.70;100.00
21361;BME280;10839;43.206;23.550;2022-12-16T09:52:24;96869.56;;;10.52;100.00
21361;BME280;10839;43.206;23.550;2022-12-16T09:55:25;96871.97;;;10.33;100.00
21361;BME280;10839;43.206;23.550;2022-12-16T09:58:13;96885.50;;;11.59;95.54
21361;BME280;10839;43.206;23.550;2022-12-16T10:00:58;96876.81;;;11.44;90.89
21361;BME280;10839;43.206;23.550;2022-12-16T10:03:44;96870.16;;;11.27;94.22
21361;BME280;10839;43.206;23.550;2022-12-16T10:06:46;96866.00;;;12.09;86.56
21361;BME280;10839;43.206;23.550;2022-12-16T10:21:57;96848.72;;;12.74;80.93
21361;BME280;10839;43.206;23.550;2022-12-16T10:24:53;96843.94;;;12.25;84.58
21361;BME280;10839;43.206;23.550;2022-12-16T10:27:47;96832.78;;;13.04;79.79
21361;BME280;10839;43.206;23.550;2022-12-16T10:30:36;96838.38;;;12.64;83.09
21361;BME280;10839;43.206;23.550;2022-12-16T10:33:25;96840.72;;;13.97;78.08
21361;BME280;10839;43.206;23.550;2022-12-16T10:47:11;96852.28;;;9.31;98.13
21361;BME280;10839;43.206;23.550;2022-12-16T10:59:17;96817.53;;;7.44;100.00
21361;BME280;10839;43.206;23.550;2022-12-16T11:02:18;96833.88;;;7.93;100.00
21361;BME280;10839;43.206;23.550;2022-12-16T11:05:27;96841.19;;;9.40;100.00
21361;BME280;10839;43.206;23.550;2022-12-16T11:14:17;96848.97;;;8.65;100.00
21361;BME280;10839;43.206;23.550;2022-12-16T11:17:22;96864.50;;;7.47;100.00
21361;BME280;10839;43.206;23.550;2022-12-16T11:23:16;96840.47;;;7.24;100.00
21361;BME280;10839;43.206;23.550;2022-12-16T11:26:16;96835.19;;;7.16;100.00
21361;BME280;10839;43.206;23.550;2022-12-16T11:29:08;96798.88;;;6.62;100.00
21361;BME280;10839;43.206;23.550;2022-12-16T11:32:02;96868.88;;;6.66;100.00
21361;BME280;10839;43.206;23.550;2022-12-16T11:34:52;96867.09;;;7.03;100.00
21361;BME280;10839;43.206;23.550;2022-12-16T11:40:14;96856.50;;;5.65;100.00
21361;BME280;10839;43.206;23.550;2022-12-16T11:45:42;96881.50;;;5.72;100.00
21361;BME280;10839;43.206;23.550;2022-12-16T11:51:13;96857.56;;;6.33;100.00
21361;BME280;10839;43.206;23.550;2022-12-16T11:54:14;96859.03;;;6.05;100.00
21361;BME280;10839;43.206;23.550;2022-12-16T11:56:55;96849.13;;;5.83;100.00
21361;BME280;10839;43.206;23.550;2022-12-16T12:02:57;96859.44;;;5.86;100.00
21361;BME280;10839;43.206;23.550;2022-12-16T12:05:55;96862.34;;;6.68;100.00
21361;BME280;10839;43.206;23.550;2022-12-16T12:17:45;96846.00;;;6.10;100.00
21361;BME280;10839;43.206;23.550;2022-12-16T12:23:36;96867.63;;;6.23;100.00
21361;BME280;10839;43.206;23.550;2022-12-16T12:37:26;96881.13;;;5.99;100.00
21361;BME280;10839;43.206;23.550;2022-12-16T12:43:35;96861.66;;;6.13;100.00
21361;BME280;10839;43.206;23.550;2022-12-16T12:55:03;96836.63;;;5.20;100.00
21361;BME280;10839;43.206;23.550;2022-12-16T12:57:54;96832.16;;;5.60;100.00
21361;BME280;10839;43.206;23.550;2022-12-16T13:00:44;96833.72;;;5.93;100.00
21361;BME280;10839;43.206;23.550;2022-12-16T13:04:00;96833.72;;;5.93;100.00
21361;BME280;10839;43.206;23.550;2022-12-16T13:06:46;96811.78;;;6.36;100.00
21361;BME280;10839;43.206;23.550;2022-12-16T13:09:33;96805.88;;;6.18;100.00
21361;BME280;10839;43.206;23.550;2022-12-16T13:15:09;96825.88;;;6.75;100.00
21361;BME280;10839;43.206;23.550;2022-12-16T13:20:48;96877.53;;;6.45;100.00
21361;BME280;10839;43.206;23.550;2022-12-16T13:23:37;96876.56;;;6.38;100.00
21361;BME280;10839;43.206;23.550;2022-12-16T13:26:24;96869.47;;;5.92;100.00
21361;BME280;10839;43.206;23.550;2022-12-16T13:29:25;96842.75;;;6.53;100.00
21361;BME280;10839;43.206;23.550;2022-12-16T13:40:59;96843.59;;;5.21;100.00
21361;BME280;10839;43.206;23.550;2022-12-16T13:43:54;96837.78;;;5.73;100.00
21361;BME280;10839;43.206;23.550;2022-12-16T13:46:54;96877.06;;;6.03;100.00
21361;BME280;10839;43.206;23.550;2022-12-16T13:55:25;96840.94;;;5.21;100.00
21361;BME280;10839;43.206;23.550;2022-12-16T14:01:11;96862.69;;;5.49;100.00
21361;BME280;10839;43.206;23.550;2022-12-16T14:03:58;96875.56;;;5.54;100.00
21361;BME280;10839;43.206;23.550;2022-12-16T14:06:44;96884.59;;;5.04;100.00
21361;BME280;10839;43.206;23.550;2022-12-16T14:09:37;96887.06;;;5.38;100.00
21361;BME280;10839;43.206;23.550;2022-12-16T14:12:37;96904.59;;;5.24;100.00
21361;BME280;10839;43.206;23.550;2022-12-16T14:15:30;96913.25;;;4.86;100.00
21361;BME280;10839;43.206;23.550;2022-12-16T14:18:31;96910.91;;;5.40;100.00
21361;BME280;10839;43.206;23.550;2022-12-16T14:21:27;96916.13;;;5.09;100.00
21361;BME280;10839;43.206;23.550;2022-12-16T14:24:26;96912.94;;;4.73;100.00
21361;BME280;10839;43.206;23.550;2022-12-16T14:27:17;96907.63;;;5.05;100.00
21361;BME280;10839;43.206;23.550;2022-12-16T14:32:58;96926.25;;;4.81;100.00
21361;BME280;10839;43.206;23.550;2022-12-16T14:35:48;96917.94;;;5.00;100.00
21361;BME280;10839;43.206;23.550;2022-12-16T14:38:35;96906.63;;;4.82;100.00
21361;BME280;10839;43.206;23.550;2022-12-16T14:41:22;96916.84;;;4.37;100.00
21361;BME280;10839;43.206;23.550;2022-12-16T14:44:18;96915.25;;;4.68;100.00
21361;BME280;10839;43.206;23.550;2022-12-16T14:47:03;96922.59;;;4.82;100.00
21361;BME280;10839;43.206;23.550;2022-12-16T14:49:51;96905.03;;;4.40;100.00
21361;BME280;10839;43.206;23.550;2022-12-16T14:52:36;96881.59;;;4.59;100.00
21361;BME280;10839;43.206;23.550;2022-12-16T14:55:32;96889.56;;;4.43;100.00
21361;BME280;10839;43.206;23.550;2022-12-16T14:58:23;96884.53;;;4.24;100.00
21361;BME280;10839;43.206;23.550;2022-12-16T15:01:14;96892.56;;;4.48;100.00
21361;BME280;10839;43.206;23.550;2022-12-16T15:04:04;96879.59;;;4.53;100.00
21361;BME280;10839;43.206;23.550;2022-12-16T15:06:52;96892.19;;;4.19;100.00
21361;BME280;10839;43.206;23.550;2022-12-16T15:09:41;96898.59;;;4.58;100.00
21361;BME280;10839;43.206;23.550;2022-12-16T15:12:30;96893.25;;;4.74;100.00
21361;BME280;10839;43.206;23.550;2022-12-16T15:15:25;96883.91;;;4.46;100.00
21361;BME280;10839;43.206;23.550;2022-12-16T15:18:27;96872.44;;;4.78;100.00
21361;BME280;10839;43.206;23.550;2022-12-16T15:21:15;96870.63;;;4.86;100.00
21361;BME280;10839;43.206;23.550;2022-12-16T15:24:00;96868.94;;;4.53;100.00
21361;BME280;10839;43.206;23.550;2022-12-16T15:26:44;96859.97;;;4.70;100.00
21361;BME280;10839;43.206;23.550;2022-12-16T15:29:40;96859.25;;;4.44;100.00
21361;BME280;10839;43.206;23.550;2022-12-16T15:38:22;96882.78;;;4.65;100.00
21361;BME280;10839;43.206;23.550;2022-12-16T15:41:20;96886.56;;;4.38;100.00
21361;BME280;10839;43.206;23.550;2022-12-16T15:44:16;96876.78;;;4.87;100.00
21361;BME280;10839;43.206;23.550;2022-12-16T15:47:02;96872.22;;;4.39;100.00
21361;BME280;10839;43.206;23.550;2022-12-16T15:49:48;96866.84;;;4.07;100.00
21361;BME280;10839;43.206;23.550;2022-12-16T15:52:40;96871.66;;;4.04;100.00
21361;BME280;10839;43.206;23.550;2022-12-16T15:55:54;96905.31;;;4.21;100.00
21361;BME280;10839;43.206;23.550;2022-12-16T15:58:39;96925.72;;;4.04;100.00
21361;BME280;10839;43.206;23.550;2022-12-16T16:01:25;96934.66;;;4.45;100.00
21361;BME280;10839;43.206;23.550;2022-12-16T16:04:25;96930.59;;;4.17;100.00
21361;BME280;10839;43.206;23.550;2022-12-16T16:07:18;96928.03;;;3.99;100.00
21361;BME280;10839;43.206;23.550;2022-12-16T16:10:21;96915.31;;;4.27;100.00
21361;BME280;10839;43.206;23.550;2022-12-16T16:13:06;96905.84;;;4.24;100.00
21361;BME280;10839;43.206;23.550;2022-12-16T16:15:51;96910.72;;;3.95;100.00
21361;BME280;10839;43.206;23.550;2022-12-16T16:18:36;96903.66;;;3.86;100.00
21361;BME280;10839;43.206;23.550;2022-12-16T16:21:21;96901.78;;;4.12;100.00
21361;BME280;10839;43.206;23.550;2022-12-16T16:24:05;96926.63;;;4.21;100.00
21361;BME280;10839;43.206;23.550;2022-12-16T16:26:52;96954.22;;;3.86;100.00
21361;BME280;10839;43.206;23.550;2022-12-16T16:29:37;96925.19;;;3.92;100.00
21361;BME280;10839;43.206;23.550;2022-12-16T16:32:21;96921.13;;;4.14;100.00
21361;BME280;10839;43.206;23.550;2022-12-16T16:35:06;96914.38;;;3.94;100.00